createdAt,value
2019-01-21T00:01:35.711Z,27.62
2019-01-21T00:04:06.201Z,26.48
2019-01-21T00:06:36.487Z,27.25
2019-01-21T00:09:08.999Z,26.27
2019-01-21T00:11:39.021Z,27.30
2019-01-21T00:14:09.047Z,25.60
2019-01-21T00:16:38.170Z,26.57
2019-01-21T00:19:08.221Z,27.48
2019-01-21T00:21:39.796Z,27.05
2019-01-21T00:24:10.271Z,25.57
2019-01-21T00:26:40.591Z,26.37
2019-01-21T00:29:10.659Z,25.80
2019-01-21T00:31:40.655Z,26.55
2019-01-21T00:34:10.792Z,26.33
2019-01-21T00:36:40.770Z,25.82
2019-01-21T00:39:11.112Z,25.72
2019-01-21T00:41:41.154Z,24.90
2019-01-21T00:44:10.892Z,26.17
2019-01-21T00:46:40.901Z,23.80
2019-01-21T00:49:10.313Z,24.35
2019-01-21T00:51:40.131Z,25.15
2019-01-21T00:54:10.550Z,24.75
2019-01-21T00:56:40.606Z,23.92
2019-01-21T00:59:10.680Z,22.50
2019-01-21T01:01:40.133Z,25.70
2019-01-21T01:04:10.113Z,24.25
2019-01-21T01:06:39.806Z,26.27
2019-01-21T01:09:10.239Z,26.02
2019-01-21T01:11:40.012Z,25.52
2019-01-21T01:14:09.492Z,24.10
2019-01-21T01:16:39.595Z,24.15
2019-01-21T01:19:09.863Z,24.77
2019-01-21T01:21:39.976Z,24.72
2019-01-21T01:24:10.252Z,23.62
2019-01-21T01:26:39.976Z,24.47
2019-01-21T01:29:09.936Z,24.12
2019-01-21T01:31:39.686Z,24.75
2019-01-21T01:34:09.975Z,25.15
2019-01-21T01:36:39.400Z,26.17
2019-01-21T01:39:09.471Z,23.32
2019-01-21T01:41:39.467Z,24.05
2019-01-21T01:44:09.431Z,24.18
2019-01-21T01:46:39.759Z,25.10
2019-01-21T01:49:09.832Z,24.23
2019-01-21T01:51:39.573Z,23.87
2019-01-21T01:54:09.066Z,25.55
2019-01-21T01:56:38.771Z,24.77
2019-01-21T01:59:08.723Z,24.50
2019-01-21T02:01:39.046Z,24.92
2019-01-21T02:04:08.716Z,25.02
2019-01-21T02:06:39.095Z,22.37
2019-01-21T02:09:09.760Z,22.98
2019-01-21T02:11:40.154Z,24.47
2019-01-21T02:14:10.144Z,23.50
2019-01-21T02:16:40.444Z,25.27
2019-01-21T02:19:10.433Z,24.60
2019-01-21T02:21:42.286Z,23.92
2019-01-21T02:24:14.208Z,24.67
2019-01-21T02:27:03.133Z,24.37
2019-01-21T02:29:59.152Z,22.80
2019-01-21T02:33:10.003Z,23.00
2019-01-21T02:36:00.536Z,21.10
2019-01-21T02:39:06.678Z,23.32
2019-01-21T02:42:09.933Z,22.67
2019-01-21T02:45:07.737Z,24.37
2019-01-21T02:47:47.327Z,21.65
2019-01-21T02:51:01.571Z,22.45
2019-01-21T02:53:55.468Z,23.75
2019-01-21T02:56:56.768Z,23.05
2019-01-21T03:00:09.837Z,22.20
2019-01-21T03:03:15.748Z,22.32
2019-01-21T03:06:14.752Z,23.12
2019-01-21T03:09:34.508Z,23.32
2019-01-21T03:12:30.843Z,21.97
2019-01-21T03:15:25.991Z,21.73
2019-01-21T03:18:35.344Z,23.92
2019-01-21T03:21:53.390Z,22.67
2019-01-21T03:31:52.648Z,21.93
2019-01-21T03:35:01.462Z,22.60
2019-01-21T03:37:59.363Z,21.65
2019-01-21T03:40:59.288Z,21.75
2019-01-21T03:44:02.220Z,22.65
2019-01-21T03:47:22.619Z,22.95
2019-01-21T03:50:33.460Z,21.73
2019-01-21T03:53:28.744Z,23.70
2019-01-21T03:56:03.384Z,24.50
2019-01-21T03:59:24.814Z,22.00
2019-01-21T04:02:43.023Z,21.33
2019-01-21T04:05:38.375Z,20.72
2019-01-21T04:08:53.820Z,22.70
2019-01-21T04:11:46.877Z,20.77
2019-01-21T04:21:55.795Z,21.65
2019-01-21T04:25:00.045Z,22.58
2019-01-21T04:27:48.468Z,23.15
2019-01-21T04:30:50.502Z,22.67
2019-01-21T04:34:15.822Z,20.62
2019-01-21T04:37:10.412Z,23.20
2019-01-21T04:40:09.844Z,22.73
2019-01-21T04:43:05.924Z,21.37
2019-01-21T04:46:05.447Z,22.13
2019-01-21T04:49:34.342Z,21.45
2019-01-21T04:52:49.693Z,22.00
2019-01-21T04:55:42.583Z,22.67
2019-01-21T04:58:47.245Z,21.62
2019-01-21T05:02:00.910Z,23.80
2019-01-21T05:11:55.559Z,21.77
2019-01-21T05:14:47.092Z,22.60
2019-01-21T05:17:42.209Z,22.60
2019-01-21T05:21:10.669Z,21.40
2019-01-21T05:31:08.464Z,22.65
2019-01-21T05:34:10.571Z,21.80
2019-01-21T05:36:56.723Z,23.02
2019-01-21T05:40:17.747Z,25.23
2019-01-21T05:43:28.035Z,22.80
2019-01-21T05:46:23.276Z,22.55
2019-01-21T05:49:34.012Z,23.42
2019-01-21T05:52:37.915Z,23.47
2019-01-21T05:55:47.204Z,24.50
2019-01-21T05:58:44.655Z,22.87
2019-01-21T06:01:52.016Z,24.57
2019-01-21T06:04:50.996Z,24.12
2019-01-21T06:07:52.897Z,22.35
2019-01-21T06:10:38.197Z,24.07
2019-01-21T06:13:54.950Z,23.20
2019-01-21T06:16:56.203Z,24.75
2019-01-21T06:20:00.481Z,23.70
2019-01-21T06:22:59.736Z,23.98
2019-01-21T06:26:13.353Z,23.70
2019-01-21T06:29:38.840Z,23.10
2019-01-21T06:32:46.579Z,24.37
2019-01-21T06:42:38.761Z,23.42
2019-01-21T06:45:18.346Z,22.70
2019-01-21T06:48:43.395Z,23.47
2019-01-21T06:51:48.007Z,22.70
2019-01-21T06:54:46.735Z,21.87
2019-01-21T06:57:42.244Z,23.70
2019-01-21T07:00:48.431Z,23.40
2019-01-21T07:03:41.056Z,23.80
2019-01-21T07:06:56.362Z,22.87
2019-01-21T07:10:01.892Z,22.70
2019-01-21T07:12:46.014Z,22.58
2019-01-21T07:15:56.747Z,21.70
2019-01-21T07:19:10.897Z,23.67
2019-01-21T07:22:14.822Z,22.62
2019-01-21T07:25:19.094Z,23.87
2019-01-21T07:28:23.620Z,22.75
2019-01-21T07:31:35.373Z,22.50
2019-01-21T07:34:34.336Z,24.25
2019-01-21T07:37:41.842Z,22.20
2019-01-21T07:41:13.299Z,23.32
2019-01-21T07:50:58.510Z,22.80
2019-01-21T07:54:08.511Z,22.90
2019-01-21T07:57:12.290Z,23.30
2019-01-21T08:00:27.371Z,23.12
2019-01-21T08:03:37.019Z,23.15
2019-01-21T08:06:45.330Z,21.93
2019-01-21T08:09:42.762Z,20.75
2019-01-21T08:13:14.691Z,21.10
2019-01-21T08:16:22.376Z,21.45
2019-01-21T08:19:25.881Z,21.35
2019-01-21T08:22:30.712Z,22.27
2019-01-21T08:25:36.773Z,21.65
2019-01-21T08:28:42.220Z,22.32
2019-01-21T08:31:27.518Z,21.65
2019-01-21T08:34:21.323Z,22.00
2019-01-21T08:37:41.110Z,21.30
2019-01-21T08:40:48.843Z,22.27
2019-01-21T08:43:57.186Z,23.02
2019-01-21T08:46:57.023Z,23.25
2019-01-21T08:49:52.779Z,21.90
2019-01-21T08:52:48.959Z,22.98
2019-01-21T08:55:39.786Z,23.73
2019-01-21T08:59:01.078Z,21.52
2019-01-21T09:02:30.383Z,23.05
2019-01-21T09:05:32.247Z,24.07
2019-01-21T09:09:04.388Z,24.02
2019-01-21T09:12:14.702Z,24.37
2019-01-21T09:21:56.940Z,23.67
2019-01-21T09:25:13.459Z,24.37
2019-01-21T09:28:25.561Z,23.67
2019-01-21T09:31:28.000Z,22.75
2019-01-21T09:41:35.772Z,23.98
2019-01-21T09:44:20.043Z,22.65
2019-01-21T09:46:48.335Z,22.77
2019-01-21T09:49:15.891Z,25.00
2019-01-21T09:51:56.806Z,23.52
2019-01-21T09:54:26.655Z,23.38
2019-01-21T09:56:58.180Z,23.35
2019-01-21T09:59:28.335Z,23.52
2019-01-21T10:02:00.836Z,24.25
2019-01-21T10:04:39.620Z,24.15
2019-01-21T10:07:31.744Z,24.37
2019-01-21T10:10:25.230Z,24.30
2019-01-21T10:13:42.689Z,22.35
2019-01-21T10:16:40.976Z,23.92
2019-01-21T10:19:38.075Z,22.73
2019-01-21T10:22:51.748Z,22.82
2019-01-21T10:25:40.359Z,23.32
2019-01-21T10:28:39.521Z,22.37
2019-01-21T10:31:32.468Z,22.15
2019-01-21T10:34:23.731Z,22.60
2019-01-21T10:37:24.495Z,22.77
2019-01-21T10:40:41.493Z,22.90
2019-01-21T10:50:38.840Z,22.32
2019-01-21T10:53:43.306Z,22.00
2019-01-21T10:56:31.583Z,22.67
2019-01-21T10:59:54.500Z,22.45
2019-01-21T11:03:10.863Z,21.55
2019-01-21T11:13:06.732Z,21.45
2019-01-21T11:16:17.337Z,22.02
2019-01-21T11:19:38.445Z,23.30
2019-01-21T11:22:27.061Z,23.45
2019-01-21T11:29:27.566Z,23.15
2019-01-21T11:32:15.785Z,23.40
2019-01-21T11:41:09.700Z,23.98
2019-01-21T11:50:01.782Z,25.55
2019-01-21T11:55:41.628Z,23.30
2019-01-21T11:58:23.463Z,24.05
2019-01-21T12:01:04.463Z,23.45
2019-01-21T12:03:45.271Z,26.20
2019-01-21T12:06:26.229Z,24.30
2019-01-21T12:09:07.344Z,25.52
2019-01-21T12:11:48.514Z,23.55
2019-01-21T12:14:29.416Z,24.52
2019-01-21T12:17:10.499Z,24.10
2019-01-21T12:19:51.467Z,24.43
2019-01-21T12:22:32.019Z,25.20
2019-01-21T12:25:13.015Z,24.55
2019-01-21T12:27:54.511Z,24.98
2019-01-21T12:30:35.408Z,23.83
2019-01-21T12:33:16.466Z,25.68
2019-01-21T12:36:15.911Z,24.60
2019-01-21T12:39:23.598Z,25.10
2019-01-21T12:42:31.203Z,24.15
2019-01-21T12:45:39.124Z,24.82
2019-01-21T12:48:47.128Z,23.83
2019-01-21T12:51:54.676Z,24.43
2019-01-21T12:55:02.515Z,24.65
2019-01-21T12:58:10.434Z,23.75
2019-01-21T13:01:18.070Z,24.02
2019-01-21T13:04:25.927Z,24.35
2019-01-21T13:07:33.848Z,24.07
2019-01-21T13:10:41.742Z,24.85
2019-01-21T13:13:49.287Z,23.80
2019-01-21T13:16:57.220Z,24.05
2019-01-21T13:20:05.115Z,24.05
2019-01-21T13:22:57.468Z,22.35
2019-01-21T13:26:05.394Z,23.65
2019-01-21T13:29:13.251Z,23.25
2019-01-21T13:32:21.228Z,24.40
2019-01-21T13:35:28.790Z,23.27
2019-01-21T13:38:36.641Z,23.67
2019-01-21T13:41:31.278Z,24.30
2019-01-21T13:44:39.059Z,25.50
2019-01-21T13:47:46.729Z,23.83
2019-01-21T13:50:54.650Z,25.12
2019-01-21T13:54:02.291Z,24.60
2019-01-21T13:57:09.948Z,23.05
2019-01-21T14:00:17.524Z,24.00
2019-01-21T14:03:05.796Z,23.40
2019-01-21T14:06:13.624Z,24.40
2019-01-21T14:09:21.520Z,24.23
2019-01-21T14:12:12.847Z,24.65
2019-01-21T14:15:15.041Z,25.02
2019-01-21T14:18:22.672Z,24.82
2019-01-21T14:21:30.270Z,24.02
2019-01-21T14:24:22.168Z,22.65
2019-01-21T14:27:30.075Z,22.67
2019-01-21T14:30:37.696Z,22.30
2019-01-21T14:36:31.256Z,23.62
2019-01-21T14:39:13.008Z,24.05
2019-01-21T14:41:54.388Z,24.90
2019-01-21T14:44:36.217Z,22.52
2019-01-21T14:47:17.669Z,23.12
2019-01-21T14:49:59.316Z,23.98
2019-01-21T14:52:40.062Z,23.02
2019-01-21T14:55:21.892Z,21.95
2019-01-21T14:58:23.171Z,21.48
2019-01-21T15:01:18.819Z,21.30
2019-01-21T15:04:26.755Z,22.27
2019-01-21T15:07:34.615Z,23.90
2019-01-21T15:10:42.386Z,22.70
2019-01-21T15:13:49.801Z,22.10
2019-01-21T15:16:57.754Z,21.23
2019-01-21T15:19:39.480Z,22.40
2019-01-21T15:22:21.217Z,21.00
2019-01-21T15:25:02.786Z,23.70
2019-01-21T15:27:44.318Z,21.33
2019-01-21T15:30:25.481Z,21.77
2019-01-21T15:33:06.834Z,21.77
2019-01-21T15:35:47.970Z,22.73
2019-01-21T15:38:29.048Z,22.65
2019-01-21T15:41:10.384Z,24.40
2019-01-21T15:43:51.863Z,25.37
2019-01-21T15:46:33.293Z,24.65
2019-01-21T15:49:14.697Z,24.63
2019-01-21T15:51:56.683Z,23.27
2019-01-21T15:54:38.152Z,23.73
2019-01-21T15:57:20.056Z,23.42
2019-01-21T16:00:01.073Z,23.45
2019-01-21T16:02:42.364Z,21.68
2019-01-21T16:05:24.267Z,22.65
2019-01-21T16:08:06.405Z,22.75
2019-01-21T16:10:47.388Z,22.07
2019-01-21T16:13:29.275Z,23.35
2019-01-21T16:16:11.039Z,21.33
2019-01-21T16:18:52.132Z,21.05
2019-01-21T16:21:33.973Z,21.37
2019-01-21T16:24:15.433Z,20.92
2019-01-21T16:26:57.452Z,21.40
2019-01-21T16:32:37.839Z,21.62
2019-01-21T16:35:19.522Z,22.30
2019-01-21T16:38:01.027Z,22.80
2019-01-21T16:40:42.942Z,21.10
2019-01-21T16:43:24.463Z,21.10
2019-01-21T16:46:05.349Z,21.93
2019-01-21T16:48:47.190Z,25.20
2019-01-21T16:53:59.866Z,27.20
2019-01-21T16:56:48.660Z,25.48
2019-01-21T16:59:37.470Z,26.02
2019-01-21T17:02:26.387Z,24.35
2019-01-21T17:05:15.340Z,25.10
2019-01-21T17:08:04.768Z,24.80
2019-01-21T17:10:53.916Z,24.57
2019-01-21T17:13:43.048Z,24.20
2019-01-21T17:16:31.561Z,25.10
2019-01-21T17:19:01.661Z,23.70
2019-01-21T17:21:50.331Z,24.02
2019-01-21T17:24:38.842Z,26.68
2019-01-21T17:27:27.414Z,25.68
2019-01-21T17:30:16.106Z,25.70
2019-01-21T17:33:04.769Z,25.08
2019-01-21T17:35:54.004Z,24.60
2019-01-21T17:38:42.959Z,26.10
2019-01-21T17:41:32.090Z,25.30
2019-01-21T17:44:21.387Z,26.95
2019-01-21T17:47:10.570Z,24.23
2019-01-21T17:49:59.111Z,27.32
2019-01-21T17:52:48.286Z,28.50
2019-01-21T17:55:19.029Z,27.58
2019-01-21T17:57:48.844Z,28.02
2019-01-21T18:00:37.742Z,28.50
2019-01-21T18:03:26.560Z,26.82
2019-01-21T18:06:15.435Z,25.82
2019-01-21T18:09:24.773Z,26.33
2019-01-21T18:12:13.084Z,24.25
2019-01-21T18:15:01.637Z,23.65
2019-01-21T18:17:42.385Z,24.60
2019-01-21T18:22:54.346Z,24.05
2019-01-21T18:25:43.484Z,22.48
2019-01-21T18:28:32.388Z,23.12
2019-01-21T18:31:21.267Z,23.38
2019-01-21T18:34:10.377Z,22.30
2019-01-21T18:36:59.326Z,21.82
2019-01-21T18:40:08.958Z,21.52
2019-01-21T18:42:58.308Z,21.30
2019-01-21T18:45:47.209Z,20.97
2019-01-21T18:48:36.043Z,21.23
2019-01-21T18:51:25.140Z,20.10
2019-01-21T18:54:14.109Z,22.37
2019-01-21T18:57:03.996Z,20.85
2019-01-21T18:59:53.429Z,22.60
2019-01-21T19:02:43.410Z,24.07
2019-01-21T19:05:34.468Z,22.17
2019-01-21T19:08:23.692Z,24.10
2019-01-21T19:11:12.821Z,22.67
2019-01-21T19:14:01.432Z,23.05
2019-01-21T19:16:42.580Z,22.95
2019-01-21T19:19:23.869Z,22.42
2019-01-21T19:21:53.946Z,23.67
2019-01-21T19:24:43.145Z,22.15
2019-01-21T19:27:32.808Z,22.65
2019-01-21T19:30:23.433Z,21.70
2019-01-21T19:33:12.725Z,20.32
2019-01-21T19:36:02.604Z,21.05
2019-01-21T19:38:52.451Z,21.65
2019-01-21T19:41:33.454Z,21.05
2019-01-21T19:44:14.898Z,20.95
2019-01-21T19:46:56.630Z,22.17
2019-01-21T19:49:37.519Z,23.42
2019-01-21T19:52:18.693Z,21.55
2019-01-21T19:55:00.424Z,21.10
2019-01-21T19:57:42.940Z,22.10
2019-01-21T20:00:24.616Z,24.05
2019-01-21T20:02:55.479Z,24.50
2019-01-21T20:05:44.849Z,24.18
2019-01-21T20:08:34.235Z,22.10
2019-01-21T20:11:23.828Z,23.70
2019-01-21T20:14:13.289Z,22.30
2019-01-21T20:17:02.913Z,21.77
2019-01-21T20:19:52.827Z,24.95
2019-01-21T20:22:23.995Z,22.75
2019-01-21T20:25:13.895Z,24.57
2019-01-21T20:28:03.577Z,23.95
2019-01-21T20:30:53.147Z,24.50
2019-01-21T20:33:42.723Z,23.45
2019-01-21T20:36:32.109Z,21.97
2019-01-21T20:39:21.617Z,21.37
2019-01-21T20:42:11.352Z,21.75
2019-01-21T20:45:01.372Z,23.90
2019-01-21T20:47:50.337Z,25.17
2019-01-21T20:50:39.328Z,27.05
2019-01-21T20:53:28.907Z,26.68
2019-01-21T20:56:18.036Z,25.43
2019-01-21T20:59:07.640Z,24.12
2019-01-21T21:01:49.552Z,23.98
2019-01-21T21:04:31.184Z,23.55
2019-01-21T21:07:12.530Z,25.15
2019-01-21T21:09:54.323Z,26.52
2019-01-21T21:12:35.102Z,26.25
2019-01-21T21:15:17.145Z,28.55
2019-01-21T21:17:58.796Z,26.82
2019-01-21T21:20:40.662Z,27.67
2019-01-21T21:23:22.368Z,26.25
2019-01-21T21:26:04.067Z,25.48
2019-01-21T21:28:45.962Z,25.60
2019-01-21T21:31:26.933Z,25.60
2019-01-21T21:34:08.759Z,25.80
2019-01-21T21:36:50.186Z,25.37
2019-01-21T21:39:32.181Z,24.20
2019-01-21T21:42:13.859Z,24.98
2019-01-21T21:44:55.048Z,25.75
2019-01-21T21:47:36.821Z,25.82
2019-01-21T21:50:18.406Z,23.55
2019-01-21T21:53:00.325Z,24.77
2019-01-21T21:55:41.838Z,26.07
2019-01-21T21:58:23.918Z,25.23
2019-01-21T22:01:05.475Z,25.10
2019-01-21T22:03:50.919Z,23.70
2019-01-21T22:06:32.897Z,25.48
2019-01-21T22:09:15.370Z,24.85
2019-01-21T22:11:58.739Z,23.32
2019-01-21T22:14:40.356Z,23.15
2019-01-21T22:17:21.875Z,23.57
2019-01-21T22:20:04.225Z,22.30
2019-01-21T22:22:45.289Z,24.25
2019-01-21T22:25:27.230Z,21.42
2019-01-21T22:28:09.274Z,22.95
2019-01-21T22:30:52.152Z,22.73
2019-01-21T22:33:33.548Z,23.40
2019-01-21T22:36:14.659Z,22.35
2019-01-21T22:38:56.080Z,23.62
2019-01-21T22:41:37.159Z,22.87
2019-01-21T22:44:06.908Z,22.65
2019-01-21T22:46:55.706Z,23.77
2019-01-21T22:49:44.517Z,22.80
2019-01-21T22:52:33.696Z,21.33
2019-01-21T22:55:22.268Z,21.60
2019-01-21T22:58:10.459Z,22.15
2019-01-21T23:01:18.094Z,21.75
2019-01-21T23:04:07.308Z,21.60
2019-01-21T23:06:56.502Z,22.55
2019-01-21T23:09:26.972Z,22.25
2019-01-21T23:12:15.788Z,21.90
2019-01-21T23:14:45.752Z,21.77
2019-01-21T23:17:34.901Z,22.17
2019-01-21T23:20:24.062Z,23.05
2019-01-21T23:23:13.380Z,22.42
2019-01-21T23:26:02.428Z,21.62
2019-01-21T23:28:50.943Z,22.87
2019-01-21T23:31:39.810Z,23.05
2019-01-21T23:34:28.899Z,21.30
2019-01-21T23:37:10.875Z,22.15
2019-01-21T23:39:52.895Z,22.77
2019-01-21T23:42:34.384Z,22.93
2019-01-21T23:45:15.721Z,23.07
2019-01-21T23:47:56.647Z,23.40
2019-01-21T23:50:38.310Z,24.02
2019-01-21T23:53:19.748Z,21.90
2019-01-21T23:56:01.348Z,23.32
2019-01-21T23:58:31.770Z,21.70
